sensor_id;sensor_type;location;lat;lon;timestamp;temperature;humidity
23719;DHT22;43322;52.230;5.702;2022-08-18T00:00:07;19.00;99.90
23719;DHT22;43322;52.230;5.702;2022-08-18T00:02:39;19.20;99.90
23719;DHT22;43322;52.230;5.702;2022-08-18T00:05:07;19.10;99.90
23719;DHT22;43322;52.230;5.702;2022-08-18T00:07:34;19.00;99.90
23719;DHT22;43322;52.230;5.702;2022-08-18T00:10:02;19.00;99.90
23719;DHT22;43322;52.230;5.702;2022-08-18T00:12:32;19.00;99.90
23719;DHT22;43322;52.230;5.702;2022-08-18T00:15:00;19.00;99.90
23719;DHT22;43322;52.230;5.702;2022-08-18T00:17:30;19.50;99.90
23719;DHT22;43322;52.230;5.702;2022-08-18T00:19:58;19.10;99.90
23719;DHT22;43322;52.230;5.702;2022-08-18T00:22:25;19.20;99.90
23719;DHT22;43322;52.230;5.702;2022-08-18T00:24:54;19.10;99.90
23719;DHT22;43322;52.230;5.702;2022-08-18T00:27:23;19.00;99.90
23719;DHT22;43322;52.230;5.702;2022-08-18T00:29:51;19.10;99.90
23719;DHT22;43322;52.230;5.702;2022-08-18T00:32:24;19.10;99.90
23719;DHT22;43322;52.230;5.702;2022-08-18T00:34:52;19.10;99.90
23719;DHT22;43322;52.230;5.702;2022-08-18T00:37:22;19.10;99.90
23719;DHT22;43322;52.230;5.702;2022-08-18T00:39:49;19.10;99.90
23719;DHT22;43322;52.230;5.702;2022-08-18T00:42:20;19.10;99.90
23719;DHT22;43322;52.230;5.702;2022-08-18T00:44:47;19.10;99.90
23719;DHT22;43322;52.230;5.702;2022-08-18T00:47:14;19.10;99.90
23719;DHT22;43322;52.230;5.702;2022-08-18T00:49:43;19.00;99.90
23719;DHT22;43322;52.230;5.702;2022-08-18T00:52:11;19.20;99.90
23719;DHT22;43322;52.230;5.702;2022-08-18T00:54:41;19.10;99.90
23719;DHT22;43322;52.230;5.702;2022-08-18T00:57:09;19.10;99.90
23719;DHT22;43322;52.230;5.702;2022-08-18T00:59:40;19.10;99.90
23719;DHT22;43322;52.230;5.702;2022-08-18T01:02:12;19.10;99.90
23719;DHT22;43322;52.230;5.702;2022-08-18T01:04:45;19.20;99.90
23719;DHT22;43322;52.230;5.702;2022-08-18T01:07:17;19.20;99.90
23719;DHT22;43322;52.230;5.702;2022-08-18T01:09:48;19.40;99.90
23719;DHT22;43322;52.230;5.702;2022-08-18T01:12:15;19.10;99.90
23719;DHT22;43322;52.230;5.702;2022-08-18T01:14:43;19.20;99.90
23719;DHT22;43322;52.230;5.702;2022-08-18T01:17:10;19.20;99.90
23719;DHT22;43322;52.230;5.702;2022-08-18T01:19:55;19.20;99.90
23719;DHT22;43322;52.230;5.702;2022-08-18T01:22:50;19.20;99.90
23719;DHT22;43322;52.230;5.702;2022-08-18T01:25:21;19.20;99.90
23719;DHT22;43322;52.230;5.702;2022-08-18T01:28:06;19.20;99.90
23719;DHT22;43322;52.230;5.702;2022-08-18T01:30:45;19.10;99.90
23719;DHT22;43322;52.230;5.702;2022-08-18T01:33:13;19.20;99.90
23719;DHT22;43322;52.230;5.702;2022-08-18T01:35:42;19.20;99.90
23719;DHT22;43322;52.230;5.702;2022-08-18T01:38:15;19.20;99.90
23719;DHT22;43322;52.230;5.702;2022-08-18T01:40:43;19.00;99.90
23719;DHT22;43322;52.230;5.702;2022-08-18T01:43:11;19.20;99.90
23719;DHT22;43322;52.230;5.702;2022-08-18T01:45:38;19.20;99.90
23719;DHT22;43322;52.230;5.702;2022-08-18T01:48:05;19.20;99.90
23719;DHT22;43322;52.230;5.702;2022-08-18T01:50:33;19.20;99.90
23719;DHT22;43322;52.230;5.702;2022-08-18T01:53:01;19.20;99.90
23719;DHT22;43322;52.230;5.702;2022-08-18T01:55:31;19.20;99.90
23719;DHT22;43322;52.230;5.702;2022-08-18T01:57:58;19.80;99.90
23719;DHT22;43322;52.230;5.702;2022-08-18T02:00:26;19.20;99.90
23719;DHT22;43322;52.230;5.702;2022-08-18T02:02:53;19.10;99.90
23719;DHT22;43322;52.230;5.702;2022-08-18T02:05:28;19.10;99.90
23719;DHT22;43322;52.230;5.702;2022-08-18T02:07:56;19.20;99.90
23719;DHT22;43322;52.230;5.702;2022-08-18T02:10:24;19.10;99.90
23719;DHT22;43322;52.230;5.702;2022-08-18T02:12:53;19.10;99.90
23719;DHT22;43322;52.230;5.702;2022-08-18T02:15:20;19.20;99.90
23719;DHT22;43322;52.230;5.702;2022-08-18T02:17:47;19.20;99.90
23719;DHT22;43322;52.230;5.702;2022-08-18T02:20:16;19.10;99.90
23719;DHT22;43322;52.230;5.702;2022-08-18T02:22:44;19.10;99.90
23719;DHT22;43322;52.230;5.702;2022-08-18T02:25:41;19.10;99.90
23719;DHT22;43322;52.230;5.702;2022-08-18T02:28:10;19.20;99.90
23719;DHT22;43322;52.230;5.702;2022-08-18T02:30:37;19.10;99.90
23719;DHT22;43322;52.230;5.702;2022-08-18T02:33:05;19.20;99.90
23719;DHT22;43322;52.230;5.702;2022-08-18T02:35:32;19.30;99.90
23719;DHT22;43322;52.230;5.702;2022-08-18T02:38:00;19.20;99.90
23719;DHT22;43322;52.230;5.702;2022-08-18T02:40:28;19.50;99.90
23719;DHT22;43322;52.230;5.702;2022-08-18T02:42:57;19.10;99.90
23719;DHT22;43322;52.230;5.702;2022-08-18T02:45:25;19.10;99.90
23719;DHT22;43322;52.230;5.702;2022-08-18T02:47:53;19.40;99.90
23719;DHT22;43322;52.230;5.702;2022-08-18T02:50:20;19.10;99.90
23719;DHT22;43322;52.230;5.702;2022-08-18T02:52:47;19.10;99.90
23719;DHT22;43322;52.230;5.702;2022-08-18T02:55:14;19.10;99.90
23719;DHT22;43322;52.230;5.702;2022-08-18T02:57:42;19.10;99.90
23719;DHT22;43322;52.230;5.702;2022-08-18T03:00:11;19.10;99.90
23719;DHT22;43322;52.230;5.702;2022-08-18T03:02:44;19.20;99.90
23719;DHT22;43322;52.230;5.702;2022-08-18T03:05:12;19.20;99.90
23719;DHT22;43322;52.230;5.702;2022-08-18T03:07:39;19.10;99.90
23719;DHT22;43322;52.230;5.702;2022-08-18T03:10:06;19.10;99.90
23719;DHT22;43322;52.230;5.702;2022-08-18T03:12:34;19.00;99.90
23719;DHT22;43322;52.230;5.702;2022-08-18T03:15:01;19.10;99.90
23719;DHT22;43322;52.230;5.702;2022-08-18T03:17:28;19.10;99.90
23719;DHT22;43322;52.230;5.702;2022-08-18T03:19:57;19.40;99.90
23719;DHT22;43322;52.230;5.702;2022-08-18T03:22:24;19.10;99.90
23719;DHT22;43322;52.230;5.702;2022-08-18T03:24:51;19.10;99.90
23719;DHT22;43322;52.230;5.702;2022-08-18T03:27:18;19.00;99.90
23719;DHT22;43322;52.230;5.702;2022-08-18T03:29:45;19.00;99.90
23719;DHT22;43322;52.230;5.702;2022-08-18T03:32:12;19.10;99.90
23719;DHT22;43322;52.230;5.702;2022-08-18T03:34:39;19.00;99.90
23719;DHT22;43322;52.230;5.702;2022-08-18T03:37:08;19.10;99.90
23719;DHT22;43322;52.230;5.702;2022-08-18T03:39:35;19.00;99.90
23719;DHT22;43322;52.230;5.702;2022-08-18T03:42:03;18.90;99.90
23719;DHT22;43322;52.230;5.702;2022-08-18T03:44:32;19.10;99.90
23719;DHT22;43322;52.230;5.702;2022-08-18T03:47:01;19.00;99.90
23719;DHT22;43322;52.230;5.702;2022-08-18T03:49:28;19.10;99.90
23719;DHT22;43322;52.230;5.702;2022-08-18T03:51:55;19.00;99.90
23719;DHT22;43322;52.230;5.702;2022-08-18T03:54:26;19.20;99.90
23719;DHT22;43322;52.230;5.702;2022-08-18T03:56:54;19.10;99.90
23719;DHT22;43322;52.230;5.702;2022-08-18T03:59:23;19.00;99.90
23719;DHT22;43322;52.230;5.702;2022-08-18T04:01:51;19.10;99.90
23719;DHT22;43322;52.230;5.702;2022-08-18T04:04:22;19.10;99.90
23719;DHT22;43322;52.230;5.702;2022-08-18T04:06:51;18.90;99.90
23719;DHT22;43322;52.230;5.702;2022-08-18T04:09:20;18.80;99.90
23719;DHT22;43322;52.230;5.702;2022-08-18T04:11:50;18.90;99.90
23719;DHT22;43322;52.230;5.702;2022-08-18T04:14:19;18.90;99.90
23719;DHT22;43322;52.230;5.702;2022-08-18T04:16:47;19.00;99.90
23719;DHT22;43322;52.230;5.702;2022-08-18T04:19:14;18.80;99.90
23719;DHT22;43322;52.230;5.702;2022-08-18T04:21:43;18.80;99.90
23719;DHT22;43322;52.230;5.702;2022-08-18T04:24:12;18.90;99.90
23719;DHT22;43322;52.230;5.702;2022-08-18T04:26:42;18.70;99.90
23719;DHT22;43322;52.230;5.702;2022-08-18T04:29:13;18.80;99.90
23719;DHT22;43322;52.230;5.702;2022-08-18T04:31:41;18.90;99.90
23719;DHT22;43322;52.230;5.702;2022-08-18T04:34:08;18.80;99.90
23719;DHT22;43322;52.230;5.702;2022-08-18T04:36:36;18.80;99.90
23719;DHT22;43322;52.230;5.702;2022-08-18T04:39:04;18.80;99.90
23719;DHT22;43322;52.230;5.702;2022-08-18T04:41:32;18.80;99.90
23719;DHT22;43322;52.230;5.702;2022-08-18T04:44:02;18.80;99.90
23719;DHT22;43322;52.230;5.702;2022-08-18T04:46:34;18.80;99.90
23719;DHT22;43322;52.230;5.702;2022-08-18T04:49:01;18.80;99.90
23719;DHT22;43322;52.230;5.702;2022-08-18T04:51:29;19.00;99.90
23719;DHT22;43322;52.230;5.702;2022-08-18T04:53:57;18.80;99.90
23719;DHT22;43322;52.230;5.702;2022-08-18T04:56:28;18.80;99.90
23719;DHT22;43322;52.230;5.702;2022-08-18T04:58:56;18.70;99.90
23719;DHT22;43322;52.230;5.702;2022-08-18T05:01:26;18.80;99.90
23719;DHT22;43322;52.230;5.702;2022-08-18T05:03:57;18.80;99.90
23719;DHT22;43322;52.230;5.702;2022-08-18T05:06:26;18.80;99.90
23719;DHT22;43322;52.230;5.702;2022-08-18T05:08:55;18.90;99.90
23719;DHT22;43322;52.230;5.702;2022-08-18T05:11:25;18.90;99.90
23719;DHT22;43322;52.230;5.702;2022-08-18T05:13:54;18.90;99.90
23719;DHT22;43322;52.230;5.702;2022-08-18T05:16:22;18.90;99.90
23719;DHT22;43322;52.230;5.702;2022-08-18T05:18:49;18.80;99.90
23719;DHT22;43322;52.230;5.702;2022-08-18T05:21:19;18.80;99.90
23719;DHT22;43322;52.230;5.702;2022-08-18T05:23:47;18.70;99.90
23719;DHT22;43322;52.230;5.702;2022-08-18T05:26:16;18.80;99.90
23719;DHT22;43322;52.230;5.702;2022-08-18T05:28:44;18.80;99.90
23719;DHT22;43322;52.230;5.702;2022-08-18T05:31:13;18.80;99.90
23719;DHT22;43322;52.230;5.702;2022-08-18T05:33:40;19.00;99.90
23719;DHT22;43322;52.230;5.702;2022-08-18T05:36:23;18.90;99.90
23719;DHT22;43322;52.230;5.702;2022-08-18T05:38:57;18.90;99.90
23719;DHT22;43322;52.230;5.702;2022-08-18T05:41:29;18.90;99.90
23719;DHT22;43322;52.230;5.702;2022-08-18T05:43:59;19.00;99.90
23719;DHT22;43322;52.230;5.702;2022-08-18T05:46:33;19.00;99.90
23719;DHT22;43322;52.230;5.702;2022-08-18T05:49:03;19.00;99.90
23719;DHT22;43322;52.230;5.702;2022-08-18T05:51:35;19.00;99.90
23719;DHT22;43322;52.230;5.702;2022-08-18T05:54:04;19.00;99.90
23719;DHT22;43322;52.230;5.702;2022-08-18T05:56:50;19.10;99.90
23719;DHT22;43322;52.230;5.702;2022-08-18T05:59:22;19.10;99.90
23719;DHT22;43322;52.230;5.702;2022-08-18T06:01:55;19.10;99.90
23719;DHT22;43322;52.230;5.702;2022-08-18T06:04:31;19.10;99.90
23719;DHT22;43322;52.230;5.702;2022-08-18T06:07:09;19.10;99.90
23719;DHT22;43322;52.230;5.702;2022-08-18T06:09:40;19.10;99.90
23719;DHT22;43322;52.230;5.702;2022-08-18T06:12:16;19.20;99.90
23719;DHT22;43322;52.230;5.702;2022-08-18T06:14:45;19.20;99.90
23719;DHT22;43322;52.230;5.702;2022-08-18T06:17:26;19.20;99.90
23719;DHT22;43322;52.230;5.702;2022-08-18T06:20:02;19.20;99.90
23719;DHT22;43322;52.230;5.702;2022-08-18T06:22:49;19.30;99.90
23719;DHT22;43322;52.230;5.702;2022-08-18T06:25:25;19.30;99.90
23719;DHT22;43322;52.230;5.702;2022-08-18T06:27:58;19.40;99.90
23719;DHT22;43322;52.230;5.702;2022-08-18T06:30:38;19.40;99.90
23719;DHT22;43322;52.230;5.702;2022-08-18T06:33:15;19.40;99.90
23719;DHT22;43322;52.230;5.702;2022-08-18T06:35:49;19.50;99.90
23719;DHT22;43322;52.230;5.702;2022-08-18T06:38:34;19.70;99.90
23719;DHT22;43322;52.230;5.702;2022-08-18T06:41:10;19.60;99.90
23719;DHT22;43322;52.230;5.702;2022-08-18T06:43:42;19.70;99.90
23719;DHT22;43322;52.230;5.702;2022-08-18T06:46:18;19.80;99.90
23719;DHT22;43322;52.230;5.702;2022-08-18T06:48:52;19.90;99.90
23719;DHT22;43322;52.230;5.702;2022-08-18T06:51:21;20.00;99.90
23719;DHT22;43322;52.230;5.702;2022-08-18T06:53:54;20.00;99.90
23719;DHT22;43322;52.230;5.702;2022-08-18T06:56:25;20.00;99.90
23719;DHT22;43322;52.230;5.702;2022-08-18T06:58:53;20.10;99.90
23719;DHT22;43322;52.230;5.702;2022-08-18T07:01:21;20.20;99.90
23719;DHT22;43322;52.230;5.702;2022-08-18T07:03:53;20.20;99.90
23719;DHT22;43322;52.230;5.702;2022-08-18T07:06:28;20.30;99.90
23719;DHT22;43322;52.230;5.702;2022-08-18T07:09:19;20.40;99.90
23719;DHT22;43322;52.230;5.702;2022-08-18T07:12:02;20.50;99.90
23719;DHT22;43322;52.230;5.702;2022-08-18T07:14:29;20.60;99.90
23719;DHT22;43322;52.230;5.702;2022-08-18T07:17:07;20.60;99.90
23719;DHT22;43322;52.230;5.702;2022-08-18T07:19:35;20.70;99.90
23719;DHT22;43322;52.230;5.702;2022-08-18T07:22:05;20.90;99.90
23719;DHT22;43322;52.230;5.702;2022-08-18T07:24:37;21.00;99.90
23719;DHT22;43322;52.230;5.702;2022-08-18T07:27:06;20.80;99.90
23719;DHT22;43322;52.230;5.702;2022-08-18T07:29:35;20.80;99.90
23719;DHT22;43322;52.230;5.702;2022-08-18T07:32:07;20.90;99.90
23719;DHT22;43322;52.230;5.702;2022-08-18T07:34:39;20.90;99.90
23719;DHT22;43322;52.230;5.702;2022-08-18T07:37:09;20.90;99.90
23719;DHT22;43322;52.230;5.702;2022-08-18T07:39:45;20.80;99.90
23719;DHT22;43322;52.230;5.702;2022-08-18T07:42:17;20.70;99.90
23719;DHT22;43322;52.230;5.702;2022-08-18T07:44:53;20.70;99.90
23719;DHT22;43322;52.230;5.702;2022-08-18T07:47:25;20.80;99.90
23719;DHT22;43322;52.230;5.702;2022-08-18T07:49:53;20.80;99.90
23719;DHT22;43322;52.230;5.702;2022-08-18T07:52:25;20.70;99.90
23719;DHT22;43322;52.230;5.702;2022-08-18T07:55:01;20.80;99.90
23719;DHT22;43322;52.230;5.702;2022-08-18T07:57:39;20.70;99.90
23719;DHT22;43322;52.230;5.702;2022-08-18T08:00:14;20.70;99.90
23719;DHT22;43322;52.230;5.702;2022-08-18T08:02:52;20.80;99.90
23719;DHT22;43322;52.230;5.702;2022-08-18T08:05:36;20.90;99.90
23719;DHT22;43322;52.230;5.702;2022-08-18T08:08:14;21.10;99.90
23719;DHT22;43322;52.230;5.702;2022-08-18T08:10:48;21.30;99.90
23719;DHT22;43322;52.230;5.702;2022-08-18T08:13:20;21.40;99.90
23719;DHT22;43322;52.230;5.702;2022-08-18T08:15:54;21.70;99.90
23719;DHT22;43322;52.230;5.702;2022-08-18T08:18:36;21.90;99.90
23719;DHT22;43322;52.230;5.702;2022-08-18T08:21:09;22.20;99.90
23719;DHT22;43322;52.230;5.702;2022-08-18T08:23:44;22.60;99.90
23719;DHT22;43322;52.230;5.702;2022-08-18T08:26:26;23.10;99.90
23719;DHT22;43322;52.230;5.702;2022-08-18T08:29:06;23.30;99.90
23719;DHT22;43322;52.230;5.702;2022-08-18T08:31:40;23.50;99.90
23719;DHT22;43322;52.230;5.702;2022-08-18T08:34:14;23.90;99.90
23719;DHT22;43322;52.230;5.702;2022-08-18T08:36:45;24.20;99.90
23719;DHT22;43322;52.230;5.702;2022-08-18T08:39:18;24.30;99.90
23719;DHT22;43322;52.230;5.702;2022-08-18T08:41:51;23.80;99.90
23719;DHT22;43322;52.230;5.702;2022-08-18T08:44:23;23.20;99.90
23719;DHT22;43322;52.230;5.702;2022-08-18T08:46:55;23.20;99.90
23719;DHT22;43322;52.230;5.702;2022-08-18T08:49:27;23.50;99.90
23719;DHT22;43322;52.230;5.702;2022-08-18T08:52:00;23.10;99.90
23719;DHT22;43322;52.230;5.702;2022-08-18T08:54:39;22.60;99.90
23719;DHT22;43322;52.230;5.702;2022-08-18T08:57:10;22.40;99.90
23719;DHT22;43322;52.230;5.702;2022-08-18T08:59:38;22.70;99.90
23719;DHT22;43322;52.230;5.702;2022-08-18T09:02:27;23.10;99.90
23719;DHT22;43322;52.230;5.702;2022-08-18T09:05:02;23.50;99.90
23719;DHT22;43322;52.230;5.702;2022-08-18T09:07:42;23.60;99.90
23719;DHT22;43322;52.230;5.702;2022-08-18T09:13:47;23.90;99.90
23719;DHT22;43322;52.230;5.702;2022-08-18T09:16:25;24.20;99.90
23719;DHT22;43322;52.230;5.702;2022-08-18T09:19:05;24.20;99.90
23719;DHT22;43322;52.230;5.702;2022-08-18T09:21:39;24.30;99.90
23719;DHT22;43322;52.230;5.702;2022-08-18T09:24:18;24.30;99.90
23719;DHT22;43322;52.230;5.702;2022-08-18T09:26:50;23.90;99.90
23719;DHT22;43322;52.230;5.702;2022-08-18T09:29:26;23.60;99.90
23719;DHT22;43322;52.230;5.702;2022-08-18T09:32:48;23.50;99.90
23719;DHT22;43322;52.230;5.702;2022-08-18T09:35:35;23.30;99.90
23719;DHT22;43322;52.230;5.702;2022-08-18T09:38:11;23.40;99.90
23719;DHT22;43322;52.230;5.702;2022-08-18T09:41:07;23.50;99.90
23719;DHT22;43322;52.230;5.702;2022-08-18T09:43:57;23.60;99.90
23719;DHT22;43322;52.230;5.702;2022-08-18T09:47:06;23.70;99.90
23719;DHT22;43322;52.230;5.702;2022-08-18T09:49:47;24.10;99.90
23719;DHT22;43322;52.230;5.702;2022-08-18T09:55:50;24.60;99.90
23719;DHT22;43322;52.230;5.702;2022-08-18T09:58:49;24.20;99.90
23719;DHT22;43322;52.230;5.702;2022-08-18T10:01:19;23.80;99.90
23719;DHT22;43322;52.230;5.702;2022-08-18T10:07:31;23.20;99.90
23719;DHT22;43322;52.230;5.702;2022-08-18T10:10:08;23.10;99.90
23719;DHT22;43322;52.230;5.702;2022-08-18T10:12:53;23.10;99.90
23719;DHT22;43322;52.230;5.702;2022-08-18T10:15:38;23.10;99.90
23719;DHT22;43322;52.230;5.702;2022-08-18T10:18:43;23.10;99.90
23719;DHT22;43322;52.230;5.702;2022-08-18T10:21:17;23.00;99.90
23719;DHT22;43322;52.230;5.702;2022-08-18T10:24:13;22.90;99.90
23719;DHT22;43322;52.230;5.702;2022-08-18T10:27:11;23.00;99.90
23719;DHT22;43322;52.230;5.702;2022-08-18T10:29:51;23.00;99.90
23719;DHT22;43322;52.230;5.702;2022-08-18T10:32:44;22.90;99.90
23719;DHT22;43322;52.230;5.702;2022-08-18T10:38:41;22.90;99.90
23719;DHT22;43322;52.230;5.702;2022-08-18T10:41:20;22.90;99.90
23719;DHT22;43322;52.230;5.702;2022-08-18T10:43:50;22.90;99.90
23719;DHT22;43322;52.230;5.702;2022-08-18T10:46:19;22.90;99.90
23719;DHT22;43322;52.230;5.702;2022-08-18T10:49:02;22.90;99.90
23719;DHT22;43322;52.230;5.702;2022-08-18T10:51:42;23.00;99.90
23719;DHT22;43322;52.230;5.702;2022-08-18T10:54:19;23.10;99.90
23719;DHT22;43322;52.230;5.702;2022-08-18T10:56:54;23.20;99.90
23719;DHT22;43322;52.230;5.702;2022-08-18T10:59:27;23.30;99.90
23719;DHT22;43322;52.230;5.702;2022-08-18T11:02:04;23.30;99.90
23719;DHT22;43322;52.230;5.702;2022-08-18T11:04:37;23.50;99.90
23719;DHT22;43322;52.230;5.702;2022-08-18T11:07:09;23.70;99.90
23719;DHT22;43322;52.230;5.702;2022-08-18T11:09:38;24.40;99.90
23719;DHT22;43322;52.230;5.702;2022-08-18T11:12:10;24.60;99.90
23719;DHT22;43322;52.230;5.702;2022-08-18T11:17:38;25.50;99.90
23719;DHT22;43322;52.230;5.702;2022-08-18T11:20:11;25.50;99.90
23719;DHT22;43322;52.230;5.702;2022-08-18T11:22:50;25.50;99.90
23719;DHT22;43322;52.230;5.702;2022-08-18T11:25:22;25.30;99.90
23719;DHT22;43322;52.230;5.702;2022-08-18T11:27:51;25.30;99.90
23719;DHT22;43322;52.230;5.702;2022-08-18T11:30:18;25.00;99.90
23719;DHT22;43322;52.230;5.702;2022-08-18T11:32:45;24.80;99.90
23719;DHT22;43322;52.230;5.702;2022-08-18T11:35:16;24.70;99.90
23719;DHT22;43322;52.230;5.702;2022-08-18T11:37:45;24.70;99.90
23719;DHT22;43322;52.230;5.702;2022-08-18T11:40:28;24.70;99.90
23719;DHT22;43322;52.230;5.702;2022-08-18T11:42:59;24.80;99.90
23719;DHT22;43322;52.230;5.702;2022-08-18T11:45:32;24.80;99.90
23719;DHT22;43322;52.230;5.702;2022-08-18T11:48:01;24.60;99.90
23719;DHT22;43322;52.230;5.702;2022-08-18T11:50:45;24.70;99.90
23719;DHT22;43322;52.230;5.702;2022-08-18T11:53:14;24.70;99.90
23719;DHT22;43322;52.230;5.702;2022-08-18T11:55:43;24.80;99.90
23719;DHT22;43322;52.230;5.702;2022-08-18T11:58:38;24.90;99.90
23719;DHT22;43322;52.230;5.702;2022-08-18T12:01:05;25.20;99.90
23719;DHT22;43322;52.230;5.702;2022-08-18T12:03:39;25.40;99.90
23719;DHT22;43322;52.230;5.702;2022-08-18T12:06:14;25.60;99.90
23719;DHT22;43322;52.230;5.702;2022-08-18T12:08:52;25.70;99.90
23719;DHT22;43322;52.230;5.702;2022-08-18T12:11:22;25.70;99.90
23719;DHT22;43322;52.230;5.702;2022-08-18T12:14:00;25.70;99.90
23719;DHT22;43322;52.230;5.702;2022-08-18T12:16:35;26.70;99.90
23719;DHT22;43322;52.230;5.702;2022-08-18T12:19:03;26.80;99.90
23719;DHT22;43322;52.230;5.702;2022-08-18T12:21:32;26.20;99.90
23719;DHT22;43322;52.230;5.702;2022-08-18T12:23:59;25.70;99.90
23719;DHT22;43322;52.230;5.702;2022-08-18T12:26:26;25.10;99.90
23719;DHT22;43322;52.230;5.702;2022-08-18T12:28:53;24.80;99.90
23719;DHT22;43322;52.230;5.702;2022-08-18T12:31:21;24.40;99.90
23719;DHT22;43322;52.230;5.702;2022-08-18T12:33:48;24.10;99.90
23719;DHT22;43322;52.230;5.702;2022-08-18T12:36:14;23.90;99.90
23719;DHT22;43322;52.230;5.702;2022-08-18T12:38:43;23.80;99.90
23719;DHT22;43322;52.230;5.702;2022-08-18T12:41:11;23.60;99.90
23719;DHT22;43322;52.230;5.702;2022-08-18T12:43:40;23.40;99.90
23719;DHT22;43322;52.230;5.702;2022-08-18T12:46:07;23.40;99.90
23719;DHT22;43322;52.230;5.702;2022-08-18T12:48:36;23.40;99.90
23719;DHT22;43322;52.230;5.702;2022-08-18T12:51:04;23.20;99.90
23719;DHT22;43322;52.230;5.702;2022-08-18T12:53:32;23.30;99.90
23719;DHT22;43322;52.230;5.702;2022-08-18T12:55:59;23.30;99.90
23719;DHT22;43322;52.230;5.702;2022-08-18T12:58:27;23.40;99.90
23719;DHT22;43322;52.230;5.702;2022-08-18T13:00:54;23.40;99.90
23719;DHT22;43322;52.230;5.702;2022-08-18T13:03:21;23.50;99.90
23719;DHT22;43322;52.230;5.702;2022-08-18T13:05:49;23.50;99.90
23719;DHT22;43322;52.230;5.702;2022-08-18T13:08:19;23.60;99.90
23719;DHT22;43322;52.230;5.702;2022-08-18T13:10:46;23.70;99.90
23719;DHT22;43322;52.230;5.702;2022-08-18T13:13:15;24.40;99.90
23719;DHT22;43322;52.230;5.702;2022-08-18T13:15:42;24.80;99.90
23719;DHT22;43322;52.230;5.702;2022-08-18T13:18:10;24.90;99.90
23719;DHT22;43322;52.230;5.702;2022-08-18T13:20:38;25.10;99.90
23719;DHT22;43322;52.230;5.702;2022-08-18T13:23:07;25.20;99.90
23719;DHT22;43322;52.230;5.702;2022-08-18T13:25:34;25.30;99.90
23719;DHT22;43322;52.230;5.702;2022-08-18T13:28:03;25.50;99.90
23719;DHT22;43322;52.230;5.702;2022-08-18T13:30:30;25.70;99.90
23719;DHT22;43322;52.230;5.702;2022-08-18T13:32:57;26.30;99.90
23719;DHT22;43322;52.230;5.702;2022-08-18T13:35:26;27.00;99.90
23719;DHT22;43322;52.230;5.702;2022-08-18T13:37:53;27.40;99.90
23719;DHT22;43322;52.230;5.702;2022-08-18T13:40:21;27.30;99.90
23719;DHT22;43322;52.230;5.702;2022-08-18T13:42:48;26.90;99.90
23719;DHT22;43322;52.230;5.702;2022-08-18T13:45:18;26.80;99.90
23719;DHT22;43322;52.230;5.702;2022-08-18T13:47:46;26.70;99.90
23719;DHT22;43322;52.230;5.702;2022-08-18T13:50:14;26.90;99.90
23719;DHT22;43322;52.230;5.702;2022-08-18T13:52:42;27.20;99.90
23719;DHT22;43322;52.230;5.702;2022-08-18T13:55:14;27.10;99.90
23719;DHT22;43322;52.230;5.702;2022-08-18T13:57:42;27.00;99.90
23719;DHT22;43322;52.230;5.702;2022-08-18T14:00:16;26.70;99.90
23719;DHT22;43322;52.230;5.702;2022-08-18T14:02:44;26.30;99.90
23719;DHT22;43322;52.230;5.702;2022-08-18T14:05:13;26.20;99.90
23719;DHT22;43322;52.230;5.702;2022-08-18T14:07:40;26.10;99.90
23719;DHT22;43322;52.230;5.702;2022-08-18T14:10:09;26.00;99.90
23719;DHT22;43322;52.230;5.702;2022-08-18T14:12:38;26.20;99.90
23719;DHT22;43322;52.230;5.702;2022-08-18T14:15:11;26.10;99.90
23719;DHT22;43322;52.230;5.702;2022-08-18T14:17:39;26.30;99.90
23719;DHT22;43322;52.230;5.702;2022-08-18T14:20:07;26.30;99.90
23719;DHT22;43322;52.230;5.702;2022-08-18T14:22:54;26.20;99.90
23719;DHT22;43322;52.230;5.702;2022-08-18T14:25:40;26.00;99.90
23719;DHT22;43322;52.230;5.702;2022-08-18T14:28:25;25.60;99.90
23719;DHT22;43322;52.230;5.702;2022-08-18T14:30:55;25.30;99.90
23719;DHT22;43322;52.230;5.702;2022-08-18T14:33:24;25.00;99.90
23719;DHT22;43322;52.230;5.702;2022-08-18T14:35:52;25.00;99.90
23719;DHT22;43322;52.230;5.702;2022-08-18T14:38:19;24.80;99.90
23719;DHT22;43322;52.230;5.702;2022-08-18T14:40:47;24.80;99.90
23719;DHT22;43322;52.230;5.702;2022-08-18T14:43:15;24.80;99.90
23719;DHT22;43322;52.230;5.702;2022-08-18T14:45:44;24.70;99.90
23719;DHT22;43322;52.230;5.702;2022-08-18T14:48:15;24.70;99.90
23719;DHT22;43322;52.230;5.702;2022-08-18T14:50:46;24.60;99.90
23719;DHT22;43322;52.230;5.702;2022-08-18T14:53:15;24.60;99.90
23719;DHT22;43322;52.230;5.702;2022-08-18T14:55:44;24.60;99.90
23719;DHT22;43322;52.230;5.702;2022-08-18T14:58:11;24.50;99.90
23719;DHT22;43322;52.230;5.702;2022-08-18T15:00:38;24.50;99.90
23719;DHT22;43322;52.230;5.702;2022-08-18T15:03:05;24.50;99.90
23719;DHT22;43322;52.230;5.702;2022-08-18T15:05:33;24.50;99.90
23719;DHT22;43322;52.230;5.702;2022-08-18T15:08:01;24.50;99.90
23719;DHT22;43322;52.230;5.702;2022-08-18T15:10:29;24.50;99.90
23719;DHT22;43322;52.230;5.702;2022-08-18T15:12:56;24.50;99.90
23719;DHT22;43322;52.230;5.702;2022-08-18T15:15:25;24.60;99.90
23719;DHT22;43322;52.230;5.702;2022-08-18T15:17:52;24.70;99.90
23719;DHT22;43322;52.230;5.702;2022-08-18T15:20:21;25.00;99.90
23719;DHT22;43322;52.230;5.702;2022-08-18T15:22:50;25.70;99.90
23719;DHT22;43322;52.230;5.702;2022-08-18T15:25:34;26.60;99.90
23719;DHT22;43322;52.230;5.702;2022-08-18T15:28:09;27.50;99.90
23719;DHT22;43322;52.230;5.702;2022-08-18T15:30:36;28.00;99.90
23719;DHT22;43322;52.230;5.702;2022-08-18T15:33:05;27.90;99.90
23719;DHT22;43322;52.230;5.702;2022-08-18T15:35:32;27.20;99.90
23719;DHT22;43322;52.230;5.702;2022-08-18T15:38:00;26.80;99.90
23719;DHT22;43322;52.230;5.702;2022-08-18T15:40:28;26.60;99.90
23719;DHT22;43322;52.230;5.702;2022-08-18T15:42:57;26.80;99.90
23719;DHT22;43322;52.230;5.702;2022-08-18T15:45:27;27.00;99.90
23719;DHT22;43322;52.230;5.702;2022-08-18T15:47:56;27.20;99.90
23719;DHT22;43322;52.230;5.702;2022-08-18T15:50:23;27.30;99.90
23719;DHT22;43322;52.230;5.702;2022-08-18T15:52:53;27.20;99.90
23719;DHT22;43322;52.230;5.702;2022-08-18T15:55:23;27.40;99.90
23719;DHT22;43322;52.230;5.702;2022-08-18T15:57:51;27.50;99.90
23719;DHT22;43322;52.230;5.702;2022-08-18T16:00:19;27.80;99.90
23719;DHT22;43322;52.230;5.702;2022-08-18T16:02:50;27.80;99.90
23719;DHT22;43322;52.230;5.702;2022-08-18T16:05:19;27.90;99.90
23719;DHT22;43322;52.230;5.702;2022-08-18T16:07:48;27.80;99.90
23719;DHT22;43322;52.230;5.702;2022-08-18T16:10:17;27.90;99.90
23719;DHT22;43322;52.230;5.702;2022-08-18T16:12:46;27.60;99.90
23719;DHT22;43322;52.230;5.702;2022-08-18T16:15:14;27.70;99.90